sensor_id;sensor_type;location;lat;lon;timestamp;temperature;humidity
8780;DHT22;62328;51.19929245;4.42130175;2023-06-14T00:00:38;22.10;99.90
8780;DHT22;62328;51.19929245;4.42130175;2023-06-14T00:03:08;22.00;99.90
8780;DHT22;62328;51.19929245;4.42130175;2023-06-14T00:05:35;22.00;99.90
8780;DHT22;62328;51.19929245;4.42130175;2023-06-14T00:08:06;22.00;99.90
8780;DHT22;62328;51.19929245;4.42130175;2023-06-14T00:10:34;22.00;99.90
8780;DHT22;62328;51.19929245;4.42130175;2023-06-14T00:13:01;22.00;99.90
8780;DHT22;62328;51.19929245;4.42130175;2023-06-14T00:15:30;21.90;99.90
8780;DHT22;62328;51.19929245;4.42130175;2023-06-14T00:17:58;21.90;99.90
8780;DHT22;62328;51.19929245;4.42130175;2023-06-14T00:20:28;21.90;99.90
8780;DHT22;62328;51.19929245;4.42130175;2023-06-14T00:22:56;21.80;99.90
8780;DHT22;62328;51.19929245;4.42130175;2023-06-14T00:25:24;21.80;99.90
8780;DHT22;62328;51.19929245;4.42130175;2023-06-14T00:27:52;21.70;99.90
8780;DHT22;62328;51.19929245;4.42130175;2023-06-14T00:30:19;21.70;99.90
8780;DHT22;62328;51.19929245;4.42130175;2023-06-14T00:32:47;21.70;99.90
8780;DHT22;62328;51.19929245;4.42130175;2023-06-14T00:35:15;21.70;99.90
8780;DHT22;62328;51.19929245;4.42130175;2023-06-14T00:37:44;21.60;99.90
8780;DHT22;62328;51.19929245;4.42130175;2023-06-14T00:40:11;21.70;99.90
8780;DHT22;62328;51.19929245;4.42130175;2023-06-14T00:42:38;21.70;99.90
8780;DHT22;62328;51.19929245;4.42130175;2023-06-14T00:45:06;21.60;99.90
8780;DHT22;62328;51.19929245;4.42130175;2023-06-14T00:47:35;21.60;99.90
8780;DHT22;62328;51.19929245;4.42130175;2023-06-14T00:50:07;21.50;99.90
8780;DHT22;62328;51.19929245;4.42130175;2023-06-14T00:52:34;21.50;99.90
8780;DHT22;62328;51.19929245;4.42130175;2023-06-14T00:55:04;21.50;99.90
8780;DHT22;62328;51.19929245;4.42130175;2023-06-14T00:57:31;21.60;99.90
8780;DHT22;62328;51.19929245;4.42130175;2023-06-14T00:59:58;21.50;99.90
8780;DHT22;62328;51.19929245;4.42130175;2023-06-14T01:02:26;21.40;99.90
8780;DHT22;62328;51.19929245;4.42130175;2023-06-14T01:04:54;21.40;99.90
8780;DHT22;62328;51.19929245;4.42130175;2023-06-14T01:07:33;21.40;99.90
8780;DHT22;62328;51.19929245;4.42130175;2023-06-14T01:10:12;21.40;99.90
8780;DHT22;62328;51.19929245;4.42130175;2023-06-14T01:12:51;21.40;99.90
8780;DHT22;62328;51.19929245;4.42130175;2023-06-14T01:15:21;21.40;99.90
8780;DHT22;62328;51.19929245;4.42130175;2023-06-14T01:17:49;21.30;99.90
8780;DHT22;62328;51.19929245;4.42130175;2023-06-14T01:20:17;21.30;99.90
8780;DHT22;62328;51.19929245;4.42130175;2023-06-14T01:22:54;21.30;99.90
8780;DHT22;62328;51.19929245;4.42130175;2023-06-14T01:25:22;21.20;99.90
8780;DHT22;62328;51.19929245;4.42130175;2023-06-14T01:27:52;21.20;99.90
8780;DHT22;62328;51.19929245;4.42130175;2023-06-14T01:30:21;21.20;99.90
8780;DHT22;62328;51.19929245;4.42130175;2023-06-14T01:32:52;21.20;99.90
8780;DHT22;62328;51.19929245;4.42130175;2023-06-14T01:35:22;21.10;99.90
8780;DHT22;62328;51.19929245;4.42130175;2023-06-14T01:37:50;21.10;99.90
8780;DHT22;62328;51.19929245;4.42130175;2023-06-14T01:40:20;21.10;99.90
8780;DHT22;62328;51.19929245;4.42130175;2023-06-14T01:42:49;21.00;99.90
8780;DHT22;62328;51.19929245;4.42130175;2023-06-14T01:45:18;21.00;99.90
8780;DHT22;62328;51.19929245;4.42130175;2023-06-14T01:47:48;21.00;99.90
8780;DHT22;62328;51.19929245;4.42130175;2023-06-14T01:50:15;21.00;99.90
8780;DHT22;62328;51.19929245;4.42130175;2023-06-14T01:52:44;21.00;99.90
8780;DHT22;62328;51.19929245;4.42130175;2023-06-14T01:55:11;21.00;99.90
8780;DHT22;62328;51.19929245;4.42130175;2023-06-14T01:57:40;21.00;99.90
8780;DHT22;62328;51.19929245;4.42130175;2023-06-14T02:00:08;20.90;99.90
8780;DHT22;62328;51.19929245;4.42130175;2023-06-14T02:02:38;20.90;99.90
8780;DHT22;62328;51.19929245;4.42130175;2023-06-14T02:05:06;20.80;99.90
8780;DHT22;62328;51.19929245;4.42130175;2023-06-14T02:07:33;20.80;99.90
8780;DHT22;62328;51.19929245;4.42130175;2023-06-14T02:10:00;20.80;99.90
8780;DHT22;62328;51.19929245;4.42130175;2023-06-14T02:12:28;20.80;99.90
8780;DHT22;62328;51.19929245;4.42130175;2023-06-14T02:14:56;20.80;99.90
8780;DHT22;62328;51.19929245;4.42130175;2023-06-14T02:17:24;20.70;99.90
8780;DHT22;62328;51.19929245;4.42130175;2023-06-14T02:19:53;20.70;99.90
8780;DHT22;62328;51.19929245;4.42130175;2023-06-14T02:22:20;20.70;99.90
8780;DHT22;62328;51.19929245;4.42130175;2023-06-14T02:24:47;20.60;99.90
8780;DHT22;62328;51.19929245;4.42130175;2023-06-14T02:27:16;20.60;99.90
8780;DHT22;62328;51.19929245;4.42130175;2023-06-14T02:29:43;20.60;99.90
8780;DHT22;62328;51.19929245;4.42130175;2023-06-14T02:32:12;20.60;99.90
8780;DHT22;62328;51.19929245;4.42130175;2023-06-14T02:34:39;20.60;99.90
8780;DHT22;62328;51.19929245;4.42130175;2023-06-14T02:37:07;20.60;99.90
8780;DHT22;62328;51.19929245;4.42130175;2023-06-14T02:39:34;20.60;99.90
8780;DHT22;62328;51.19929245;4.42130175;2023-06-14T02:42:02;20.50;99.90
8780;DHT22;62328;51.19929245;4.42130175;2023-06-14T02:44:29;20.50;99.90
8780;DHT22;62328;51.19929245;4.42130175;2023-06-14T02:46:58;20.40;99.90
8780;DHT22;62328;51.19929245;4.42130175;2023-06-14T02:49:27;20.40;99.90
8780;DHT22;62328;51.19929245;4.42130175;2023-06-14T02:51:55;20.40;99.90
8780;DHT22;62328;51.19929245;4.42130175;2023-06-14T02:54:22;20.30;99.90
8780;DHT22;62328;51.19929245;4.42130175;2023-06-14T02:56:49;20.30;99.90
8780;DHT22;62328;51.19929245;4.42130175;2023-06-14T02:59:17;20.30;99.90
8780;DHT22;62328;51.19929245;4.42130175;2023-06-14T03:01:45;20.30;99.90
8780;DHT22;62328;51.19929245;4.42130175;2023-06-14T03:04:12;20.30;99.90
8780;DHT22;62328;51.19929245;4.42130175;2023-06-14T03:06:41;20.30;99.90
8780;DHT22;62328;51.19929245;4.42130175;2023-06-14T03:09:10;20.30;99.90
8780;DHT22;62328;51.19929245;4.42130175;2023-06-14T03:11:37;20.20;99.90
8780;DHT22;62328;51.19929245;4.42130175;2023-06-14T03:14:04;20.20;99.90
8780;DHT22;62328;51.19929245;4.42130175;2023-06-14T03:16:32;20.20;99.90
8780;DHT22;62328;51.19929245;4.42130175;2023-06-14T03:19:03;20.20;99.90
8780;DHT22;62328;51.19929245;4.42130175;2023-06-14T03:21:33;20.10;99.90
8780;DHT22;62328;51.19929245;4.42130175;2023-06-14T03:24:01;20.10;99.90
8780;DHT22;62328;51.19929245;4.42130175;2023-06-14T03:26:30;20.10;99.90
8780;DHT22;62328;51.19929245;4.42130175;2023-06-14T03:29:00;20.10;99.90
8780;DHT22;62328;51.19929245;4.42130175;2023-06-14T03:31:29;20.00;99.90
8780;DHT22;62328;51.19929245;4.42130175;2023-06-14T03:33:58;20.00;99.90
8780;DHT22;62328;51.19929245;4.42130175;2023-06-14T03:36:25;20.00;99.90
8780;DHT22;62328;51.19929245;4.42130175;2023-06-14T03:38:53;20.00;99.90
8780;DHT22;62328;51.19929245;4.42130175;2023-06-14T03:41:22;20.00;99.90
8780;DHT22;62328;51.19929245;4.42130175;2023-06-14T03:43:49;20.00;99.90
8780;DHT22;62328;51.19929245;4.42130175;2023-06-14T03:46:18;19.90;99.90
8780;DHT22;62328;51.19929245;4.42130175;2023-06-14T03:48:45;19.90;99.90
8780;DHT22;62328;51.19929245;4.42130175;2023-06-14T03:51:13;19.90;99.90
8780;DHT22;62328;51.19929245;4.42130175;2023-06-14T03:53:40;19.90;99.90
8780;DHT22;62328;51.19929245;4.42130175;2023-06-14T03:56:07;19.90;99.90
8780;DHT22;62328;51.19929245;4.42130175;2023-06-14T03:58:36;19.80;99.90
8780;DHT22;62328;51.19929245;4.42130175;2023-06-14T04:01:03;19.80;99.90
8780;DHT22;62328;51.19929245;4.42130175;2023-06-14T04:03:32;19.80;99.90
8780;DHT22;62328;51.19929245;4.42130175;2023-06-14T04:06:00;19.80;99.90
8780;DHT22;62328;51.19929245;4.42130175;2023-06-14T04:08:27;19.80;99.90
8780;DHT22;62328;51.19929245;4.42130175;2023-06-14T04:10:54;19.80;99.90
8780;DHT22;62328;51.19929245;4.42130175;2023-06-14T04:13:21;19.80;99.90
8780;DHT22;62328;51.19929245;4.42130175;2023-06-14T04:15:50;19.70;99.90
8780;DHT22;62328;51.19929245;4.42130175;2023-06-14T04:18:17;19.70;99.90
8780;DHT22;62328;51.19929245;4.42130175;2023-06-14T04:20:45;19.70;99.90
8780;DHT22;62328;51.19929245;4.42130175;2023-06-14T04:23:12;19.60;99.90
8780;DHT22;62328;51.19929245;4.42130175;2023-06-14T04:25:40;19.70;99.90
8780;DHT22;62328;51.19929245;4.42130175;2023-06-14T04:28:11;19.70;99.90
8780;DHT22;62328;51.19929245;4.42130175;2023-06-14T04:30:39;19.60;99.90
8780;DHT22;62328;51.19929245;4.42130175;2023-06-14T04:33:09;19.60;99.90
8780;DHT22;62328;51.19929245;4.42130175;2023-06-14T04:35:36;19.60;99.90
8780;DHT22;62328;51.19929245;4.42130175;2023-06-14T04:38:04;19.70;99.90
8780;DHT22;62328;51.19929245;4.42130175;2023-06-14T04:40:35;19.60;99.90
8780;DHT22;62328;51.19929245;4.42130175;2023-06-14T04:43:08;19.60;99.90
8780;DHT22;62328;51.19929245;4.42130175;2023-06-14T04:45:38;19.60;99.90
8780;DHT22;62328;51.19929245;4.42130175;2023-06-14T04:48:06;19.60;99.90
8780;DHT22;62328;51.19929245;4.42130175;2023-06-14T04:50:39;19.60;99.90
8780;DHT22;62328;51.19929245;4.42130175;2023-06-14T04:53:07;19.60;99.90
8780;DHT22;62328;51.19929245;4.42130175;2023-06-14T04:55:37;19.60;99.90
8780;DHT22;62328;51.19929245;4.42130175;2023-06-14T04:58:04;19.70;99.90
8780;DHT22;62328;51.19929245;4.42130175;2023-06-14T05:00:32;19.60;99.90
8780;DHT22;62328;51.19929245;4.42130175;2023-06-14T05:03:00;19.70;99.90
8780;DHT22;62328;51.19929245;4.42130175;2023-06-14T05:05:28;19.60;99.90
8780;DHT22;62328;51.19929245;4.42130175;2023-06-14T05:07:57;19.60;99.90
8780;DHT22;62328;51.19929245;4.42130175;2023-06-14T05:10:25;19.60;99.90
8780;DHT22;62328;51.19929245;4.42130175;2023-06-14T05:12:52;19.70;99.90
8780;DHT22;62328;51.19929245;4.42130175;2023-06-14T05:15:20;19.70;99.90
8780;DHT22;62328;51.19929245;4.42130175;2023-06-14T05:17:52;19.70;99.90
8780;DHT22;62328;51.19929245;4.42130175;2023-06-14T05:20:22;19.70;99.90
8780;DHT22;62328;51.19929245;4.42130175;2023-06-14T05:22:52;19.70;99.90
8780;DHT22;62328;51.19929245;4.42130175;2023-06-14T05:25:21;19.80;99.90
8780;DHT22;62328;51.19929245;4.42130175;2023-06-14T05:27:48;19.80;99.90
8780;DHT22;62328;51.19929245;4.42130175;2023-06-14T05:30:16;19.80;99.90
8780;DHT22;62328;51.19929245;4.42130175;2023-06-14T05:32:43;19.90;99.90
8780;DHT22;62328;51.19929245;4.42130175;2023-06-14T05:35:11;19.90;99.90
8780;DHT22;62328;51.19929245;4.42130175;2023-06-14T05:37:38;19.90;99.90
8780;DHT22;62328;51.19929245;4.42130175;2023-06-14T05:40:06;19.90;99.90
8780;DHT22;62328;51.19929245;4.42130175;2023-06-14T05:42:36;19.90;99.90
8780;DHT22;62328;51.19929245;4.42130175;2023-06-14T05:45:04;19.90;99.90
8780;DHT22;62328;51.19929245;4.42130175;2023-06-14T05:47:34;19.90;99.90
8780;DHT22;62328;51.19929245;4.42130175;2023-06-14T05:50:02;19.90;99.90
8780;DHT22;62328;51.19929245;4.42130175;2023-06-14T05:52:29;20.00;99.90
8780;DHT22;62328;51.19929245;4.42130175;2023-06-14T05:54:57;20.00;99.90
8780;DHT22;62328;51.19929245;4.42130175;2023-06-14T05:57:24;20.10;99.90
8780;DHT22;62328;51.19929245;4.42130175;2023-06-14T05:59:52;20.10;99.90
8780;DHT22;62328;51.19929245;4.42130175;2023-06-14T06:02:19;20.20;99.90
8780;DHT22;62328;51.19929245;4.42130175;2023-06-14T06:04:46;20.20;99.90
8780;DHT22;62328;51.19929245;4.42130175;2023-06-14T06:07:13;20.30;99.90
8780;DHT22;62328;51.19929245;4.42130175;2023-06-14T06:09:40;20.30;99.90
8780;DHT22;62328;51.19929245;4.42130175;2023-06-14T06:12:07;20.30;99.90
8780;DHT22;62328;51.19929245;4.42130175;2023-06-14T06:14:35;20.30;99.90
8780;DHT22;62328;51.19929245;4.42130175;2023-06-14T06:17:04;20.40;99.90
8780;DHT22;62328;51.19929245;4.42130175;2023-06-14T06:19:33;20.40;99.90
8780;DHT22;62328;51.19929245;4.42130175;2023-06-14T06:22:01;20.40;99.90
8780;DHT22;62328;51.19929245;4.42130175;2023-06-14T06:24:30;20.50;99.90
8780;DHT22;62328;51.19929245;4.42130175;2023-06-14T06:26:57;20.50;99.90
8780;DHT22;62328;51.19929245;4.42130175;2023-06-14T06:29:26;20.60;99.90
8780;DHT22;62328;51.19929245;4.42130175;2023-06-14T06:31:53;20.60;99.90
8780;DHT22;62328;51.19929245;4.42130175;2023-06-14T06:34:23;20.70;99.90
8780;DHT22;62328;51.19929245;4.42130175;2023-06-14T06:36:50;20.70;99.90
8780;DHT22;62328;51.19929245;4.42130175;2023-06-14T06:39:18;20.80;99.90
8780;DHT22;62328;51.19929245;4.42130175;2023-06-14T06:41:49;20.80;99.90
8780;DHT22;62328;51.19929245;4.42130175;2023-06-14T06:44:16;20.90;99.90
8780;DHT22;62328;51.19929245;4.42130175;2023-06-14T06:46:43;20.90;99.90
8780;DHT22;62328;51.19929245;4.42130175;2023-06-14T06:49:11;20.90;99.90
8780;DHT22;62328;51.19929245;4.42130175;2023-06-14T06:51:42;21.00;99.90
8780;DHT22;62328;51.19929245;4.42130175;2023-06-14T06:54:10;21.00;99.90
8780;DHT22;62328;51.19929245;4.42130175;2023-06-14T06:56:37;21.10;99.90
8780;DHT22;62328;51.19929245;4.42130175;2023-06-14T06:59:04;21.00;99.90
8780;DHT22;62328;51.19929245;4.42130175;2023-06-14T07:01:31;21.30;99.90
8780;DHT22;62328;51.19929245;4.42130175;2023-06-14T07:03:59;21.30;99.90
8780;DHT22;62328;51.19929245;4.42130175;2023-06-14T07:06:26;21.30;99.90
8780;DHT22;62328;51.19929245;4.42130175;2023-06-14T07:08:55;21.40;99.90
8780;DHT22;62328;51.19929245;4.42130175;2023-06-14T07:11:26;21.50;99.90
8780;DHT22;62328;51.19929245;4.42130175;2023-06-14T07:13:54;21.60;99.90
8780;DHT22;62328;51.19929245;4.42130175;2023-06-14T07:16:21;21.70;99.90
8780;DHT22;62328;51.19929245;4.42130175;2023-06-14T07:18:49;21.70;99.90
8780;DHT22;62328;51.19929245;4.42130175;2023-06-14T07:21:16;21.70;99.90
8780;DHT22;62328;51.19929245;4.42130175;2023-06-14T07:23:43;21.80;99.90
8780;DHT22;62328;51.19929245;4.42130175;2023-06-14T07:26:12;21.90;99.90
8780;DHT22;62328;51.19929245;4.42130175;2023-06-14T07:28:39;21.90;99.90
8780;DHT22;62328;51.19929245;4.42130175;2023-06-14T07:31:06;22.00;99.90
8780;DHT22;62328;51.19929245;4.42130175;2023-06-14T07:33:34;22.10;99.90
8780;DHT22;62328;51.19929245;4.42130175;2023-06-14T07:36:01;22.20;99.90
8780;DHT22;62328;51.19929245;4.42130175;2023-06-14T07:38:28;22.20;99.90
8780;DHT22;62328;51.19929245;4.42130175;2023-06-14T07:40:56;22.30;99.90
8780;DHT22;62328;51.19929245;4.42130175;2023-06-14T07:43:25;22.40;99.90
8780;DHT22;62328;51.19929245;4.42130175;2023-06-14T07:45:52;22.40;99.90
8780;DHT22;62328;51.19929245;4.42130175;2023-06-14T07:48:19;22.50;99.90
8780;DHT22;62328;51.19929245;4.42130175;2023-06-14T07:50:46;22.60;99.90
8780;DHT22;62328;51.19929245;4.42130175;2023-06-14T07:53:13;22.70;99.90
8780;DHT22;62328;51.19929245;4.42130175;2023-06-14T07:55:40;22.70;99.90
8780;DHT22;62328;51.19929245;4.42130175;2023-06-14T07:58:08;22.80;99.90
8780;DHT22;62328;51.19929245;4.42130175;2023-06-14T08:00:37;22.90;99.90
8780;DHT22;62328;51.19929245;4.42130175;2023-06-14T08:03:04;23.00;99.90
8780;DHT22;62328;51.19929245;4.42130175;2023-06-14T08:05:31;23.00;99.90
8780;DHT22;62328;51.19929245;4.42130175;2023-06-14T08:07:58;23.10;99.90
8780;DHT22;62328;51.19929245;4.42130175;2023-06-14T08:10:25;23.10;99.90
8780;DHT22;62328;51.19929245;4.42130175;2023-06-14T08:12:52;23.20;99.90
8780;DHT22;62328;51.19929245;4.42130175;2023-06-14T08:15:19;23.30;99.90
8780;DHT22;62328;51.19929245;4.42130175;2023-06-14T08:17:48;23.30;99.90
8780;DHT22;62328;51.19929245;4.42130175;2023-06-14T08:20:16;23.40;99.90
8780;DHT22;62328;51.19929245;4.42130175;2023-06-14T08:22:43;23.40;99.90
8780;DHT22;62328;51.19929245;4.42130175;2023-06-14T08:25:12;23.50;99.90
8780;DHT22;62328;51.19929245;4.42130175;2023-06-14T08:27:39;23.50;99.90
8780;DHT22;62328;51.19929245;4.42130175;2023-06-14T08:30:08;23.70;99.90
8780;DHT22;62328;51.19929245;4.42130175;2023-06-14T08:32:35;23.70;99.90
8780;DHT22;62328;51.19929245;4.42130175;2023-06-14T08:35:05;23.80;99.90
8780;DHT22;62328;51.19929245;4.42130175;2023-06-14T08:37:33;23.80;99.90
8780;DHT22;62328;51.19929245;4.42130175;2023-06-14T08:40:00;23.80;99.90
8780;DHT22;62328;51.19929245;4.42130175;2023-06-14T08:42:30;23.90;99.90
8780;DHT22;62328;51.19929245;4.42130175;2023-06-14T08:44:57;23.90;99.90
8780;DHT22;62328;51.19929245;4.42130175;2023-06-14T08:47:26;24.00;99.90
8780;DHT22;62328;51.19929245;4.42130175;2023-06-14T08:49:55;24.00;99.90
8780;DHT22;62328;51.19929245;4.42130175;2023-06-14T08:52:27;24.10;99.90
8780;DHT22;62328;51.19929245;4.42130175;2023-06-14T08:54:59;24.10;99.90
8780;DHT22;62328;51.19929245;4.42130175;2023-06-14T08:57:28;24.10;99.90
8780;DHT22;62328;51.19929245;4.42130175;2023-06-14T08:59:57;24.20;99.90
8780;DHT22;62328;51.19929245;4.42130175;2023-06-14T09:02:27;24.30;99.90
8780;DHT22;62328;51.19929245;4.42130175;2023-06-14T09:04:55;24.30;99.90
8780;DHT22;62328;51.19929245;4.42130175;2023-06-14T09:07:27;24.30;99.90
8780;DHT22;62328;51.19929245;4.42130175;2023-06-14T09:10:07;24.30;99.90
8780;DHT22;62328;51.19929245;4.42130175;2023-06-14T09:12:35;24.50;99.90
8780;DHT22;62328;51.19929245;4.42130175;2023-06-14T09:15:02;24.50;99.90
8780;DHT22;62328;51.19929245;4.42130175;2023-06-14T09:17:32;24.60;99.90
8780;DHT22;62328;51.19929245;4.42130175;2023-06-14T09:20:01;24.60;99.90
8780;DHT22;62328;51.19929245;4.42130175;2023-06-14T09:22:33;24.60;99.90
8780;DHT22;62328;51.19929245;4.42130175;2023-06-14T09:25:00;24.70;99.90
8780;DHT22;62328;51.19929245;4.42130175;2023-06-14T09:27:27;24.80;99.90
8780;DHT22;62328;51.19929245;4.42130175;2023-06-14T09:29:55;24.80;99.90
8780;DHT22;62328;51.19929245;4.42130175;2023-06-14T09:32:22;24.90;99.90
8780;DHT22;62328;51.19929245;4.42130175;2023-06-14T09:34:49;24.90;99.90
8780;DHT22;62328;51.19929245;4.42130175;2023-06-14T09:37:27;25.00;99.90
8780;DHT22;62328;51.19929245;4.42130175;2023-06-14T09:39:57;25.00;99.90
8780;DHT22;62328;51.19929245;4.42130175;2023-06-14T09:42:25;25.10;99.90
8780;DHT22;62328;51.19929245;4.42130175;2023-06-14T09:44:55;25.20;99.90
8780;DHT22;62328;51.19929245;4.42130175;2023-06-14T09:47:23;25.20;99.90
8780;DHT22;62328;51.19929245;4.42130175;2023-06-14T09:49:51;25.30;99.90
8780;DHT22;62328;51.19929245;4.42130175;2023-06-14T09:52:21;25.30;99.90
8780;DHT22;62328;51.19929245;4.42130175;2023-06-14T09:54:49;25.30;99.90
8780;DHT22;62328;51.19929245;4.42130175;2023-06-14T09:57:22;25.40;99.90
8780;DHT22;62328;51.19929245;4.42130175;2023-06-14T09:59:53;25.60;99.90
8780;DHT22;62328;51.19929245;4.42130175;2023-06-14T10:02:25;25.60;99.90
8780;DHT22;62328;51.19929245;4.42130175;2023-06-14T10:04:58;25.70;99.90
8780;DHT22;62328;51.19929245;4.42130175;2023-06-14T10:07:34;25.70;99.90
8780;DHT22;62328;51.19929245;4.42130175;2023-06-14T10:10:02;25.70;99.90
8780;DHT22;62328;51.19929245;4.42130175;2023-06-14T10:12:33;25.70;99.90
8780;DHT22;62328;51.19929245;4.42130175;2023-06-14T10:15:00;25.70;99.90
8780;DHT22;62328;51.19929245;4.42130175;2023-06-14T10:17:35;25.70;99.90
8780;DHT22;62328;51.19929245;4.42130175;2023-06-14T10:20:19;25.70;99.90
8780;DHT22;62328;51.19929245;4.42130175;2023-06-14T10:22:50;25.80;99.90
8780;DHT22;62328;51.19929245;4.42130175;2023-06-14T10:25:28;25.80;99.90
8780;DHT22;62328;51.19929245;4.42130175;2023-06-14T10:28:16;25.80;99.90
8780;DHT22;62328;51.19929245;4.42130175;2023-06-14T10:31:04;25.90;99.90
8780;DHT22;62328;51.19929245;4.42130175;2023-06-14T10:33:31;25.90;99.90
8780;DHT22;62328;51.19929245;4.42130175;2023-06-14T10:36:28;26.00;99.90
8780;DHT22;62328;51.19929245;4.42130175;2023-06-14T10:39:00;26.10;99.90
8780;DHT22;62328;51.19929245;4.42130175;2023-06-14T10:41:28;26.20;99.90
8780;DHT22;62328;51.19929245;4.42130175;2023-06-14T10:44:43;26.20;99.90
8780;DHT22;62328;51.19929245;4.42130175;2023-06-14T10:47:20;26.20;99.90
8780;DHT22;62328;51.19929245;4.42130175;2023-06-14T10:49:51;26.30;99.90
8780;DHT22;62328;51.19929245;4.42130175;2023-06-14T10:52:22;26.30;99.20
8780;DHT22;62328;51.19929245;4.42130175;2023-06-14T10:55:10;26.30;99.10
8780;DHT22;62328;51.19929245;4.42130175;2023-06-14T10:57:39;26.40;98.60
8780;DHT22;62328;51.19929245;4.42130175;2023-06-14T11:00:09;26.40;97.50
8780;DHT22;62328;51.19929245;4.42130175;2023-06-14T11:03:12;26.50;98.80
8780;DHT22;62328;51.19929245;4.42130175;2023-06-14T11:05:51;26.50;99.30
8780;DHT22;62328;51.19929245;4.42130175;2023-06-14T11:11:38;26.70;98.70
8780;DHT22;62328;51.19929245;4.42130175;2023-06-14T11:14:08;26.70;98.10
8780;DHT22;62328;51.19929245;4.42130175;2023-06-14T11:16:38;26.80;99.70
8780;DHT22;62328;51.19929245;4.42130175;2023-06-14T11:19:05;26.80;97.60
8780;DHT22;62328;51.19929245;4.42130175;2023-06-14T11:21:33;26.90;98.00
8780;DHT22;62328;51.19929245;4.42130175;2023-06-14T11:24:01;26.90;97.40
8780;DHT22;62328;51.19929245;4.42130175;2023-06-14T11:26:29;27.00;98.30
8780;DHT22;62328;51.19929245;4.42130175;2023-06-14T11:28:57;27.00;98.80
8780;DHT22;62328;51.19929245;4.42130175;2023-06-14T11:31:25;27.10;98.40
8780;DHT22;62328;51.19929245;4.42130175;2023-06-14T11:33:55;27.10;98.00
8780;DHT22;62328;51.19929245;4.42130175;2023-06-14T11:36:23;27.20;98.10
8780;DHT22;62328;51.19929245;4.42130175;2023-06-14T11:38:50;27.30;97.20
8780;DHT22;62328;51.19929245;4.42130175;2023-06-14T11:41:25;27.40;96.90
8780;DHT22;62328;51.19929245;4.42130175;2023-06-14T11:43:53;27.40;96.80
8780;DHT22;62328;51.19929245;4.42130175;2023-06-14T11:46:20;27.50;97.20
8780;DHT22;62328;51.19929245;4.42130175;2023-06-14T11:48:52;27.60;97.40
8780;DHT22;62328;51.19929245;4.42130175;2023-06-14T11:51:21;27.70;97.60
8780;DHT22;62328;51.19929245;4.42130175;2023-06-14T11:53:48;27.70;97.90
8780;DHT22;62328;51.19929245;4.42130175;2023-06-14T11:56:16;27.80;98.40
8780;DHT22;62328;51.19929245;4.42130175;2023-06-14T11:58:43;27.90;95.80
8780;DHT22;62328;51.19929245;4.42130175;2023-06-14T12:01:15;28.00;95.60
8780;DHT22;62328;51.19929245;4.42130175;2023-06-14T12:03:48;28.10;94.60
8780;DHT22;62328;51.19929245;4.42130175;2023-06-14T12:06:16;28.20;95.40
8780;DHT22;62328;51.19929245;4.42130175;2023-06-14T12:08:45;28.30;95.00
8780;DHT22;62328;51.19929245;4.42130175;2023-06-14T12:11:15;28.30;96.00
8780;DHT22;62328;51.19929245;4.42130175;2023-06-14T12:13:43;28.40;96.50
8780;DHT22;62328;51.19929245;4.42130175;2023-06-14T12:16:12;28.50;96.40
8780;DHT22;62328;51.19929245;4.42130175;2023-06-14T12:18:40;28.60;96.60
8780;DHT22;62328;51.19929245;4.42130175;2023-06-14T12:21:09;28.60;95.50
8780;DHT22;62328;51.19929245;4.42130175;2023-06-14T12:23:42;28.70;94.80
8780;DHT22;62328;51.19929245;4.42130175;2023-06-14T12:26:12;28.80;95.10
8780;DHT22;62328;51.19929245;4.42130175;2023-06-14T12:28:40;28.90;95.80
8780;DHT22;62328;51.19929245;4.42130175;2023-06-14T12:31:07;29.00;95.80
8780;DHT22;62328;51.19929245;4.42130175;2023-06-14T12:33:35;29.00;95.20
8780;DHT22;62328;51.19929245;4.42130175;2023-06-14T12:36:04;29.10;91.80
8780;DHT22;62328;51.19929245;4.42130175;2023-06-14T12:38:32;29.10;93.30
8780;DHT22;62328;51.19929245;4.42130175;2023-06-14T12:40:59;29.10;93.20
8780;DHT22;62328;51.19929245;4.42130175;2023-06-14T12:43:28;29.20;94.20
8780;DHT22;62328;51.19929245;4.42130175;2023-06-14T12:45:55;29.30;93.50
8780;DHT22;62328;51.19929245;4.42130175;2023-06-14T12:48:22;29.50;93.40
8780;DHT22;62328;51.19929245;4.42130175;2023-06-14T12:50:50;29.50;92.40
8780;DHT22;62328;51.19929245;4.42130175;2023-06-14T12:53:17;29.50;94.10
8780;DHT22;62328;51.19929245;4.42130175;2023-06-14T12:55:44;29.70;93.00
8780;DHT22;62328;51.19929245;4.42130175;2023-06-14T12:58:12;29.70;92.20
8780;DHT22;62328;51.19929245;4.42130175;2023-06-14T13:00:41;29.80;92.00
8780;DHT22;62328;51.19929245;4.42130175;2023-06-14T13:03:09;30.00;92.20
8780;DHT22;62328;51.19929245;4.42130175;2023-06-14T13:05:37;30.10;91.20
8780;DHT22;62328;51.19929245;4.42130175;2023-06-14T13:08:07;30.20;91.60
8780;DHT22;62328;51.19929245;4.42130175;2023-06-14T13:10:35;30.30;91.60
8780;DHT22;62328;51.19929245;4.42130175;2023-06-14T13:13:02;30.30;90.90
8780;DHT22;62328;51.19929245;4.42130175;2023-06-14T13:15:29;30.50;90.60
8780;DHT22;62328;51.19929245;4.42130175;2023-06-14T13:17:58;30.60;90.10
8780;DHT22;62328;51.19929245;4.42130175;2023-06-14T13:20:25;30.70;88.90
8780;DHT22;62328;51.19929245;4.42130175;2023-06-14T13:22:52;30.70;86.90
8780;DHT22;62328;51.19929245;4.42130175;2023-06-14T13:25:19;30.80;88.10
8780;DHT22;62328;51.19929245;4.42130175;2023-06-14T13:27:48;30.80;85.10
8780;DHT22;62328;51.19929245;4.42130175;2023-06-14T13:30:15;30.90;86.60
8780;DHT22;62328;51.19929245;4.42130175;2023-06-14T13:32:42;31.00;87.90
8780;DHT22;62328;51.19929245;4.42130175;2023-06-14T13:35:11;31.10;86.50
8780;DHT22;62328;51.19929245;4.42130175;2023-06-14T13:37:37;31.20;85.90
8780;DHT22;62328;51.19929245;4.42130175;2023-06-14T13:40:06;31.30;86.00
8780;DHT22;62328;51.19929245;4.42130175;2023-06-14T13:42:33;31.40;85.00
8780;DHT22;62328;51.19929245;4.42130175;2023-06-14T13:45:02;31.60;85.90
8780;DHT22;62328;51.19929245;4.42130175;2023-06-14T13:47:29;31.60;83.70